createdAt,value
2018-07-19T00:01:41.165Z,20.00
2018-07-19T00:04:08.875Z,20.10
2018-07-19T00:06:36.586Z,20.38
2018-07-19T00:09:06.545Z,20.05
2018-07-19T00:11:34.266Z,20.05
2018-07-19T00:14:01.986Z,19.66
2018-07-19T00:16:29.698Z,19.56
2018-07-19T00:18:57.404Z,19.68
2018-07-19T00:21:25.090Z,19.83
2018-07-19T00:23:52.777Z,20.00
2018-07-19T00:26:20.439Z,19.66
2018-07-19T00:28:48.134Z,19.54
2018-07-19T00:31:15.816Z,19.49
2018-07-19T00:33:43.521Z,19.68
2018-07-19T00:36:11.185Z,19.62
2018-07-19T00:38:38.884Z,19.94
2018-07-19T00:41:06.619Z,19.98
2018-07-19T00:43:34.295Z,19.94
2018-07-19T00:46:01.996Z,19.87
2018-07-19T00:48:29.721Z,19.80
2018-07-19T00:50:57.417Z,19.76
2018-07-19T00:53:25.106Z,19.70
2018-07-19T00:55:52.776Z,19.63
2018-07-19T00:58:20.477Z,19.59
2018-07-19T01:00:48.200Z,19.80
2018-07-19T01:03:15.877Z,19.88
2018-07-19T01:05:43.694Z,19.54
2018-07-19T01:08:11.400Z,19.16
2018-07-19T01:10:39.102Z,19.21
2018-07-19T01:13:07.153Z,19.46
2018-07-19T01:15:34.858Z,19.59
2018-07-19T01:18:03.441Z,19.63
2018-07-19T01:20:31.132Z,19.67
2018-07-19T01:22:58.849Z,19.67
2018-07-19T01:25:26.545Z,19.68
2018-07-19T01:27:54.393Z,19.69
2018-07-19T01:30:22.140Z,19.61
2018-07-19T01:32:49.825Z,19.60
2018-07-19T01:35:17.520Z,19.64
2018-07-19T01:37:45.250Z,19.38
2018-07-19T01:40:12.922Z,19.20
2018-07-19T01:42:41.736Z,19.17
2018-07-19T01:45:10.129Z,19.00
2018-07-19T01:47:37.882Z,18.91
2018-07-19T01:50:06.718Z,18.77
2018-07-19T01:52:34.489Z,18.71
2018-07-19T01:55:02.203Z,18.63
2018-07-19T01:57:29.908Z,18.62
2018-07-19T01:59:57.654Z,18.57
2018-07-19T02:02:25.258Z,18.43
2018-07-19T02:04:52.973Z,18.43
2018-07-19T02:07:20.834Z,18.52
2018-07-19T02:09:48.562Z,18.45
2018-07-19T02:12:16.211Z,18.45
2018-07-19T02:14:43.896Z,18.34
2018-07-19T02:17:11.594Z,18.28
2018-07-19T02:19:39.273Z,18.42
2018-07-19T02:22:06.973Z,18.78
2018-07-19T02:24:34.670Z,18.63
2018-07-19T02:27:02.345Z,18.49
2018-07-19T02:29:30.201Z,18.41
2018-07-19T02:31:57.975Z,18.36
2018-07-19T02:34:25.673Z,18.51
2018-07-19T02:36:53.393Z,18.71
2018-07-19T02:39:21.093Z,18.84
2018-07-19T02:41:48.830Z,18.75
2018-07-19T02:44:16.701Z,18.93
2018-07-19T02:46:44.672Z,18.86
2018-07-19T02:49:12.810Z,18.68
2018-07-19T02:51:41.380Z,18.63
2018-07-19T02:54:09.377Z,18.62
2018-07-19T02:56:37.047Z,18.43
2018-07-19T02:59:04.862Z,18.43
2018-07-19T03:01:32.547Z,18.38
2018-07-19T03:04:00.315Z,18.46
2018-07-19T03:06:28.012Z,18.58
2018-07-19T03:08:55.782Z,18.55
2018-07-19T03:11:23.831Z,18.54
2018-07-19T03:13:51.513Z,18.48
2018-07-19T03:16:19.273Z,18.52
2018-07-19T03:18:46.962Z,18.49
2018-07-19T03:21:14.658Z,18.49
2018-07-19T03:23:42.490Z,18.55
2018-07-19T03:26:10.411Z,18.63
2018-07-19T03:28:38.074Z,18.66
2018-07-19T03:31:05.922Z,18.78
2018-07-19T03:33:33.547Z,18.78
2018-07-19T03:36:01.222Z,18.92
2018-07-19T03:38:28.921Z,19.02
2018-07-19T03:40:56.667Z,19.09
2018-07-19T03:43:24.380Z,19.10
2018-07-19T03:45:52.111Z,19.15
2018-07-19T03:48:19.815Z,19.31
2018-07-19T03:50:47.513Z,19.37
2018-07-19T03:53:15.218Z,19.45
2018-07-19T03:55:42.921Z,19.59
2018-07-19T03:58:10.637Z,19.67
2018-07-19T04:00:38.336Z,19.67
2018-07-19T04:03:06.018Z,19.82
2018-07-19T04:05:33.700Z,20.09
2018-07-19T04:08:01.385Z,20.43
2018-07-19T04:10:29.075Z,20.59
2018-07-19T04:12:56.782Z,20.71
2018-07-19T04:15:24.454Z,20.82
2018-07-19T04:17:55.917Z,20.61
2018-07-19T04:20:31.507Z,20.59
2018-07-19T04:22:59.270Z,21.04
2018-07-19T04:25:27.315Z,21.32
2018-07-19T04:27:55.838Z,21.54
2018-07-19T04:30:23.494Z,21.74
2018-07-19T04:32:51.172Z,21.86
2018-07-19T04:35:19.426Z,22.00
2018-07-19T04:37:47.148Z,22.23
2018-07-19T04:40:14.941Z,22.39
2018-07-19T04:42:42.751Z,22.55
2018-07-19T04:45:10.467Z,22.64
2018-07-19T04:47:38.181Z,22.77
2018-07-19T04:50:05.901Z,22.74
2018-07-19T04:52:33.638Z,22.90
2018-07-19T04:55:01.322Z,22.99
2018-07-19T04:57:29.021Z,23.13
2018-07-19T04:59:56.730Z,23.07
2018-07-19T05:02:24.429Z,22.99
2018-07-19T05:04:52.113Z,22.97
2018-07-19T05:07:19.811Z,22.61
2018-07-19T05:09:47.898Z,22.83
2018-07-19T05:12:15.632Z,23.03
2018-07-19T05:14:43.478Z,23.06
2018-07-19T05:17:11.203Z,23.21
2018-07-19T05:19:38.917Z,23.29
2018-07-19T05:22:06.644Z,23.35
2018-07-19T05:24:34.322Z,23.29
2018-07-19T05:27:02.044Z,23.28
2018-07-19T05:29:29.719Z,23.32
2018-07-19T05:31:57.416Z,23.44
2018-07-19T05:34:25.178Z,23.53
2018-07-19T05:36:52.844Z,23.53
2018-07-19T05:39:20.629Z,23.61
2018-07-19T05:41:48.321Z,23.56
2018-07-19T05:44:16.041Z,23.59
2018-07-19T05:46:43.713Z,23.62
2018-07-19T05:49:11.444Z,23.60
2018-07-19T05:51:39.316Z,23.68
2018-07-19T05:54:07.045Z,23.73
2018-07-19T05:56:34.849Z,23.66
2018-07-19T05:59:02.600Z,23.68
2018-07-19T06:01:30.281Z,23.78
2018-07-19T06:03:57.978Z,23.83
2018-07-19T06:06:25.681Z,23.83
2018-07-19T06:08:53.368Z,23.83
2018-07-19T06:11:21.084Z,23.71
2018-07-19T06:13:48.784Z,23.68
2018-07-19T06:16:17.058Z,23.67
2018-07-19T06:18:44.795Z,23.74
2018-07-19T06:21:12.560Z,23.78
2018-07-19T06:23:40.294Z,23.85
2018-07-19T06:26:08.029Z,23.89
2018-07-19T06:28:35.726Z,23.93
2018-07-19T06:31:03.458Z,24.05
2018-07-19T06:33:31.123Z,24.17
2018-07-19T06:35:59.028Z,24.21
2018-07-19T06:38:26.822Z,24.08
2018-07-19T06:40:54.593Z,24.22
2018-07-19T06:43:22.310Z,24.03
2018-07-19T06:45:50.071Z,24.05
2018-07-19T06:48:17.801Z,24.24
2018-07-19T06:50:45.519Z,24.22
2018-07-19T06:53:13.227Z,24.23
2018-07-19T06:55:40.956Z,24.21
2018-07-19T06:58:08.665Z,24.02
2018-07-19T07:00:36.362Z,24.33
2018-07-19T07:03:04.089Z,24.43
2018-07-19T07:05:31.796Z,24.45
2018-07-19T07:07:59.493Z,24.26
2018-07-19T07:10:27.179Z,24.04
2018-07-19T07:12:54.898Z,23.97
2018-07-19T07:15:22.620Z,24.08
2018-07-19T07:17:50.313Z,24.20
2018-07-19T07:20:17.974Z,24.08
2018-07-19T07:22:45.697Z,23.93
2018-07-19T07:25:13.377Z,23.86
2018-07-19T07:27:41.130Z,23.87
2018-07-19T07:30:08.901Z,23.99
2018-07-19T07:32:36.606Z,24.02
2018-07-19T07:35:05.230Z,24.09
2018-07-19T07:37:33.805Z,24.06
2018-07-19T07:40:01.528Z,23.94
2018-07-19T07:42:29.219Z,23.88
2018-07-19T07:44:56.914Z,23.95
2018-07-19T07:47:24.615Z,23.91
2018-07-19T07:49:52.310Z,23.89
2018-07-19T07:52:20.038Z,24.02
2018-07-19T07:54:47.745Z,24.15
2018-07-19T07:57:15.428Z,24.03
2018-07-19T07:59:43.278Z,24.27
2018-07-19T08:02:11.026Z,24.21
2018-07-19T08:04:39.085Z,24.04
2018-07-19T08:07:06.801Z,23.94
2018-07-19T08:09:34.501Z,24.01
2018-07-19T08:12:02.340Z,23.98
2018-07-19T08:14:30.129Z,24.26
2018-07-19T08:16:57.833Z,24.21
2018-07-19T08:19:25.639Z,24.10
2018-07-19T08:21:53.376Z,24.17
2018-07-19T08:24:21.088Z,24.26
2018-07-19T08:26:48.777Z,24.29
2018-07-19T08:29:16.443Z,24.32
2018-07-19T08:31:44.165Z,24.32
2018-07-19T08:34:11.870Z,24.42
2018-07-19T08:36:39.566Z,24.39
2018-07-19T08:39:10.438Z,24.41
2018-07-19T08:41:38.113Z,24.45
2018-07-19T08:44:05.835Z,24.55
2018-07-19T08:46:33.519Z,24.63
2018-07-19T08:49:01.388Z,24.65
2018-07-19T08:51:29.571Z,24.64
2018-07-19T08:53:57.277Z,24.67
2018-07-19T08:56:25.018Z,24.62
2018-07-19T08:58:52.670Z,24.68
2018-07-19T09:01:20.385Z,24.54
2018-07-19T09:03:48.055Z,24.53
2018-07-19T09:06:15.754Z,24.59
2018-07-19T09:08:43.470Z,24.62
2018-07-19T09:11:11.168Z,24.56
2018-07-19T09:13:38.865Z,24.48
2018-07-19T09:16:06.778Z,24.60
2018-07-19T09:18:34.451Z,24.68
2018-07-19T09:21:02.154Z,24.75
2018-07-19T09:23:29.841Z,24.77
2018-07-19T09:25:57.505Z,24.78
2018-07-19T09:28:25.179Z,24.79
2018-07-19T09:30:52.898Z,24.82
2018-07-19T09:33:20.894Z,24.85
2018-07-19T09:35:48.579Z,24.88
2018-07-19T09:38:16.376Z,24.84
2018-07-19T09:40:44.045Z,24.79
2018-07-19T09:43:11.707Z,24.85
2018-07-19T09:45:39.410Z,24.95
2018-07-19T09:48:07.082Z,24.97
2018-07-19T09:50:34.792Z,25.02
2018-07-19T09:53:02.477Z,24.93
2018-07-19T09:55:30.167Z,25.00
2018-07-19T09:57:57.840Z,24.94
2018-07-19T10:00:31.087Z,24.87
2018-07-19T10:02:58.780Z,24.82
2018-07-19T10:05:26.493Z,24.85
2018-07-19T10:07:54.274Z,24.82
2018-07-19T10:10:22.000Z,24.77
2018-07-19T10:12:49.767Z,24.79
2018-07-19T10:15:17.513Z,24.86
2018-07-19T10:17:45.230Z,24.80
2018-07-19T10:20:12.969Z,24.82
2018-07-19T10:22:40.682Z,24.81
2018-07-19T10:25:08.714Z,24.73
2018-07-19T10:27:36.436Z,24.70
2018-07-19T10:30:05.579Z,24.76
2018-07-19T10:32:33.316Z,24.77
2018-07-19T10:35:00.985Z,24.85
2018-07-19T10:37:28.704Z,24.79
2018-07-19T10:39:56.449Z,24.72
2018-07-19T10:42:24.143Z,24.86
2018-07-19T10:44:51.886Z,24.84
2018-07-19T10:47:19.605Z,24.97
2018-07-19T10:49:47.267Z,24.98
2018-07-19T10:52:14.953Z,25.05
2018-07-19T10:54:42.832Z,25.03
2018-07-19T10:57:10.544Z,25.00
2018-07-19T10:59:38.224Z,24.98
2018-07-19T11:02:05.974Z,25.10
2018-07-19T11:04:33.717Z,25.09
2018-07-19T11:07:01.391Z,25.05
2018-07-19T11:09:29.095Z,25.02
2018-07-19T11:11:56.778Z,24.98
2018-07-19T11:14:24.502Z,25.01
2018-07-19T11:16:52.198Z,25.14
2018-07-19T11:19:19.897Z,25.14
2018-07-19T11:21:47.621Z,25.21
2018-07-19T11:24:15.371Z,25.19
2018-07-19T11:26:43.087Z,25.12
2018-07-19T11:29:10.829Z,25.16
2018-07-19T11:31:38.544Z,25.14
2018-07-19T11:34:06.334Z,25.17
2018-07-19T11:36:34.024Z,25.21
2018-07-19T11:39:01.708Z,25.29
2018-07-19T11:41:29.467Z,25.28
2018-07-19T11:43:57.316Z,25.41
2018-07-19T11:46:24.990Z,25.36
2018-07-19T11:48:52.651Z,25.40
2018-07-19T11:51:20.343Z,25.46
2018-07-19T11:53:48.037Z,25.42
2018-07-19T11:56:15.734Z,25.43
2018-07-19T11:58:43.576Z,25.51
2018-07-19T12:01:11.322Z,25.53
2018-07-19T12:03:39.041Z,25.44
2018-07-19T12:06:06.782Z,25.48
2018-07-19T12:08:34.490Z,25.50
2018-07-19T12:11:02.182Z,25.48
2018-07-19T12:13:29.889Z,25.54
2018-07-19T12:15:57.598Z,25.57
2018-07-19T12:18:25.294Z,25.54
2018-07-19T12:20:53.013Z,25.37
2018-07-19T12:23:21.144Z,25.39
2018-07-19T12:25:48.866Z,25.45
2018-07-19T12:28:16.537Z,25.42
2018-07-19T12:30:44.240Z,25.44
2018-07-19T12:33:11.950Z,25.44
2018-07-19T12:35:39.764Z,25.50
2018-07-19T12:38:07.484Z,25.59
2018-07-19T12:40:35.189Z,25.59
2018-07-19T12:43:02.857Z,25.60
2018-07-19T12:45:30.581Z,25.52
2018-07-19T12:47:58.251Z,25.51
2018-07-19T12:50:26.129Z,25.52
2018-07-19T12:52:53.812Z,25.60
2018-07-19T12:55:21.471Z,25.54
2018-07-19T12:57:49.223Z,25.64
2018-07-19T13:00:16.954Z,25.57
2018-07-19T13:02:44.610Z,25.53
2018-07-19T13:05:12.318Z,25.27
2018-07-19T13:07:40.001Z,25.53
2018-07-19T13:10:07.717Z,25.63
2018-07-19T13:12:35.577Z,25.75
2018-07-19T13:15:04.759Z,25.83
2018-07-19T13:17:32.421Z,25.72
2018-07-19T13:20:00.529Z,25.71
2018-07-19T13:22:28.206Z,25.84
2018-07-19T13:24:55.922Z,25.61
2018-07-19T13:27:23.650Z,25.59
2018-07-19T13:29:51.405Z,25.58
2018-07-19T13:32:19.078Z,25.68
2018-07-19T13:34:46.856Z,25.69
2018-07-19T13:37:14.562Z,25.60
2018-07-19T13:39:42.224Z,25.57
2018-07-19T13:42:09.950Z,25.75
2018-07-19T13:44:37.664Z,25.76
2018-07-19T13:47:05.348Z,25.72
2018-07-19T13:49:33.076Z,25.70
2018-07-19T13:52:00.773Z,25.70
2018-07-19T13:54:38.596Z,25.69
2018-07-19T13:57:06.308Z,25.70
2018-07-19T13:59:33.965Z,25.68
2018-07-19T14:02:01.899Z,25.57
2018-07-19T14:04:29.565Z,25.55
2018-07-19T14:06:57.242Z,25.53
2018-07-19T14:09:24.979Z,25.46
2018-07-19T14:11:52.658Z,25.51
2018-07-19T14:14:20.762Z,25.51
2018-07-19T14:16:48.428Z,25.62
2018-07-19T14:19:16.142Z,25.75
2018-07-19T14:21:43.803Z,25.71
2018-07-19T14:24:11.626Z,25.71
2018-07-19T14:26:39.318Z,25.59
2018-07-19T14:29:07.001Z,25.65
2018-07-19T14:31:34.736Z,25.59
2018-07-19T14:34:02.438Z,25.73
2018-07-19T14:36:30.172Z,25.75
2018-07-19T14:38:57.883Z,25.85
2018-07-19T14:41:25.632Z,25.89
2018-07-19T14:43:53.373Z,25.94
2018-07-19T14:46:21.533Z,25.90
2018-07-19T14:48:49.249Z,25.78
2018-07-19T14:51:16.981Z,25.77
2018-07-19T14:53:44.682Z,25.71
2018-07-19T14:56:12.397Z,25.68
2018-07-19T14:58:40.105Z,25.78
2018-07-19T15:01:07.881Z,25.84
2018-07-19T15:03:35.777Z,25.74
2018-07-19T15:06:03.523Z,25.72
2018-07-19T15:08:31.244Z,25.74
2018-07-19T15:10:58.958Z,25.83
2018-07-19T15:13:26.661Z,25.81
2018-07-19T15:15:54.364Z,25.84
2018-07-19T15:18:22.066Z,25.72
2018-07-19T15:20:49.801Z,25.75
2018-07-19T15:23:17.545Z,25.80
2018-07-19T15:25:45.281Z,25.80
2018-07-19T15:28:13.090Z,25.74
2018-07-19T15:30:40.808Z,25.77
2018-07-19T15:33:08.514Z,25.78
2018-07-19T15:35:36.210Z,25.81
2018-07-19T15:38:04.080Z,25.82
2018-07-19T15:40:31.771Z,25.82
2018-07-19T15:42:59.461Z,25.78
2018-07-19T15:45:27.246Z,25.79
2018-07-19T15:47:54.973Z,25.76
2018-07-19T15:50:22.711Z,25.78
2018-07-19T15:52:50.392Z,25.79
2018-07-19T15:55:18.078Z,25.76
2018-07-19T15:57:45.796Z,25.76
2018-07-19T16:00:13.554Z,25.72
2018-07-19T16:02:41.321Z,25.73
2018-07-19T16:05:09.156Z,25.74
2018-07-19T16:07:36.887Z,25.68
2018-07-19T16:10:04.675Z,25.71
2018-07-19T16:12:32.396Z,25.72
2018-07-19T16:15:00.091Z,25.73
2018-07-19T16:17:27.792Z,25.71
2018-07-19T16:19:55.511Z,25.70
2018-07-19T16:22:23.569Z,25.71
2018-07-19T16:24:51.305Z,25.73
2018-07-19T16:27:19.045Z,25.74
2018-07-19T16:29:46.746Z,25.75
2018-07-19T16:32:14.451Z,25.76
2018-07-19T16:34:42.135Z,25.76
2018-07-19T16:37:09.818Z,25.78
2018-07-19T16:39:37.528Z,25.76
2018-07-19T16:42:05.234Z,25.73
2018-07-19T16:44:32.890Z,25.75
2018-07-19T16:47:00.682Z,25.78
2018-07-19T16:49:28.377Z,25.73
2018-07-19T16:51:56.132Z,25.73
2018-07-19T16:54:23.810Z,25.73
2018-07-19T16:56:51.525Z,25.71
2018-07-19T16:59:19.300Z,25.73
2018-07-19T17:01:46.997Z,25.71
2018-07-19T17:04:14.698Z,25.70
2018-07-19T17:06:42.404Z,25.67
2018-07-19T17:09:10.985Z,25.65
2018-07-19T17:11:45.384Z,25.67
2018-07-19T17:14:13.063Z,25.67
2018-07-19T17:16:40.731Z,25.67
2018-07-19T17:19:08.438Z,25.62
2018-07-19T17:21:36.139Z,25.63
2018-07-19T17:24:03.868Z,25.62
2018-07-19T17:26:31.661Z,25.61
2018-07-19T17:28:59.697Z,25.60
2018-07-19T17:31:27.374Z,25.57
2018-07-19T17:33:55.092Z,25.54
2018-07-19T17:36:22.744Z,25.50
2018-07-19T17:38:50.441Z,25.44
2018-07-19T17:41:18.186Z,25.45
2018-07-19T17:43:45.908Z,25.29
2018-07-19T17:46:13.600Z,25.24
2018-07-19T17:48:41.313Z,25.27
2018-07-19T17:51:09.037Z,25.13
2018-07-19T17:53:36.728Z,25.16
2018-07-19T17:56:04.447Z,25.18
2018-07-19T17:58:32.133Z,25.15
2018-07-19T18:00:59.881Z,25.19
2018-07-19T18:03:27.552Z,25.12
2018-07-19T18:05:55.258Z,25.13
2018-07-19T18:08:22.956Z,25.11
2018-07-19T18:10:50.920Z,25.12
2018-07-19T18:13:18.606Z,25.00
2018-07-19T18:15:46.285Z,24.97
2018-07-19T18:18:13.956Z,24.98
2018-07-19T18:20:41.674Z,24.87
2018-07-19T18:23:09.460Z,24.69
2018-07-19T18:25:37.154Z,24.73
2018-07-19T18:28:05.164Z,24.68
2018-07-19T18:30:32.848Z,24.56
2018-07-19T18:33:00.549Z,24.63
2018-07-19T18:35:28.229Z,24.66
2018-07-19T18:37:55.956Z,24.60
2018-07-19T18:40:23.618Z,24.63
2018-07-19T18:42:51.299Z,24.46
2018-07-19T18:45:18.994Z,24.56
2018-07-19T18:47:46.705Z,24.58
2018-07-19T18:50:14.510Z,24.60
2018-07-19T18:52:42.167Z,24.38
2018-07-19T18:55:09.850Z,24.39
2018-07-19T18:57:37.525Z,24.37
2018-07-19T19:00:05.565Z,24.34
2018-07-19T19:02:33.297Z,24.32
2018-07-19T19:05:00.973Z,24.24
2018-07-19T19:07:28.690Z,24.17
2018-07-19T19:09:56.396Z,24.14
2018-07-19T19:12:24.105Z,24.16
2018-07-19T19:14:51.816Z,24.08
2018-07-19T19:17:19.520Z,23.98
2018-07-19T19:19:47.189Z,23.97
2018-07-19T19:22:14.860Z,23.98
2018-07-19T19:24:42.566Z,23.92
2018-07-19T19:27:10.265Z,23.82
2018-07-19T19:29:37.981Z,23.86
2018-07-19T19:32:05.751Z,23.85
2018-07-19T19:34:33.438Z,23.96
2018-07-19T19:37:01.168Z,23.94
2018-07-19T19:39:28.865Z,23.78
2018-07-19T19:41:56.577Z,23.77
2018-07-19T19:44:24.318Z,23.58
2018-07-19T19:46:51.981Z,23.53
2018-07-19T19:49:19.724Z,23.50
2018-07-19T19:51:47.458Z,23.61
2018-07-19T19:54:15.196Z,23.64
2018-07-19T19:56:42.882Z,23.49
2018-07-19T19:59:10.561Z,23.54
2018-07-19T20:01:38.288Z,23.51
2018-07-19T20:04:06.258Z,23.36
2018-07-19T20:06:33.961Z,23.26
2018-07-19T20:09:01.637Z,23.27
2018-07-19T20:11:29.375Z,23.24
2018-07-19T20:13:57.053Z,23.22
2018-07-19T20:16:24.726Z,23.25
2018-07-19T20:18:52.392Z,23.22
2018-07-19T20:21:20.114Z,23.17
2018-07-19T20:23:47.798Z,23.10
2018-07-19T20:26:15.465Z,23.03
2018-07-19T20:28:43.206Z,23.08
2018-07-19T20:31:11.069Z,23.01
2018-07-19T20:33:38.722Z,23.03
2018-07-19T20:36:06.383Z,23.04
2018-07-19T20:38:34.091Z,23.04
2018-07-19T20:41:01.804Z,22.88
2018-07-19T20:43:29.500Z,22.94
2018-07-19T20:45:57.175Z,22.99
2018-07-19T20:48:24.905Z,22.90
2018-07-19T20:50:52.610Z,22.95
2018-07-19T20:53:20.373Z,22.94
2018-07-19T20:55:48.045Z,22.96
2018-07-19T20:58:15.703Z,22.97
2018-07-19T21:00:43.356Z,22.89
2018-07-19T21:03:11.057Z,22.85
2018-07-19T21:05:38.728Z,22.86
2018-07-19T21:08:06.388Z,22.74
2018-07-19T21:10:34.073Z,22.80
2018-07-19T21:13:01.739Z,22.76
2018-07-19T21:15:29.429Z,22.73
2018-07-19T21:17:57.105Z,22.65
2018-07-19T21:20:24.755Z,22.48
2018-07-19T21:22:52.429Z,22.51
2018-07-19T21:25:20.102Z,22.53
2018-07-19T21:27:47.760Z,22.49
2018-07-19T21:30:15.444Z,22.48
2018-07-19T21:32:43.130Z,22.42
2018-07-19T21:35:10.826Z,22.39
2018-07-19T21:37:38.507Z,22.40
2018-07-19T21:40:06.242Z,22.34
2018-07-19T21:42:33.915Z,22.33
2018-07-19T21:45:01.568Z,22.24
2018-07-19T21:47:29.240Z,22.24
2018-07-19T21:49:56.903Z,22.21
2018-07-19T21:52:24.557Z,22.17
2018-07-19T21:54:52.256Z,22.11
2018-07-19T21:57:19.919Z,21.96
2018-07-19T21:59:47.601Z,21.92
2018-07-19T22:02:15.264Z,21.88
2018-07-19T22:04:43.064Z,21.91
2018-07-19T22:07:10.858Z,21.85
2018-07-19T22:09:38.572Z,21.82
2018-07-19T22:12:06.276Z,21.43
2018-07-19T22:14:33.965Z,21.75
2018-07-19T22:17:01.634Z,21.80
2018-07-19T22:19:29.337Z,21.77
2018-07-19T22:21:57.007Z,21.73
2018-07-19T22:24:24.670Z,21.82
2018-07-19T22:26:52.358Z,21.82
2018-07-19T22:29:20.134Z,21.65
2018-07-19T22:31:47.812Z,21.49
2018-07-19T22:34:15.498Z,21.51
2018-07-19T22:36:43.161Z,21.40
2018-07-19T22:39:11.625Z,21.49
2018-07-19T22:41:39.379Z,21.44
2018-07-19T22:44:07.109Z,21.40
2018-07-19T22:46:34.842Z,21.33
2018-07-19T22:49:02.511Z,21.27
2018-07-19T22:51:30.183Z,21.13
2018-07-19T22:53:57.871Z,21.03
2018-07-19T22:56:25.551Z,20.78
2018-07-19T22:58:53.281Z,20.94
2018-07-19T23:01:20.961Z,21.05
2018-07-19T23:03:48.729Z,20.75
2018-07-19T23:06:16.515Z,21.14
2018-07-19T23:08:44.185Z,21.12
2018-07-19T23:11:11.855Z,21.12
2018-07-19T23:13:39.526Z,21.20
2018-07-19T23:16:07.741Z,21.17
2018-07-19T23:18:35.412Z,21.17
2018-07-19T23:21:03.097Z,21.08
2018-07-19T23:23:30.761Z,21.11
2018-07-19T23:25:58.447Z,20.98
2018-07-19T23:28:26.173Z,21.00
2018-07-19T23:30:53.971Z,20.85
2018-07-19T23:33:21.723Z,20.71
2018-07-19T23:35:57.660Z,20.53
2018-07-19T23:38:29.481Z,20.19
2018-07-19T23:40:58.429Z,20.40
2018-07-19T23:43:33.881Z,20.39
2018-07-19T23:46:06.321Z,19.91
2018-07-19T23:48:34.063Z,20.32
2018-07-19T23:51:01.733Z,19.94
2018-07-19T23:53:29.398Z,19.77
2018-07-19T23:55:57.054Z,19.99
2018-07-19T23:58:24.733Z,19.82
